地図

経路データ

SID SEASON NUMBER BASIN SUBBASIN NAME ISO_TIME NATURE LAT LON WMO_WIND WMO_PRES WMO_AGENCY TRACK_TYPE DIST2LAND LANDFALL IFLAG USA_AGENCY USA_ATCF_ID USA_LAT USA_LON USA_RECORD USA_STATUS USA_WIND USA_PRES USA_SSHS USA_R34_NE USA_R34_SE USA_R34_SW USA_R34_NW USA_R50_NE USA_R50_SE USA_R50_SW USA_R50_NW USA_R64_NE USA_R64_SE USA_R64_SW USA_R64_NW USA_POCI USA_ROCI USA_RMW USA_EYE TOKYO_LAT TOKYO_LON TOKYO_GRADE TOKYO_WIND TOKYO_PRES TOKYO_R50_DIR TOKYO_R50_LONG TOKYO_R50_SHORT TOKYO_R30_DIR TOKYO_R30_LONG TOKYO_R30_SHORT TOKYO_LAND CMA_LAT CMA_LON CMA_CAT CMA_WIND CMA_PRES HKO_LAT HKO_LON HKO_CAT HKO_WIND HKO_PRES NEWDELHI_LAT NEWDELHI_LON NEWDELHI_GRADE NEWDELHI_WIND NEWDELHI_PRES NEWDELHI_CI NEWDELHI_DP NEWDELHI_POCI REUNION_LAT REUNION_LON REUNION_TYPE REUNION_WIND REUNION_PRES REUNION_TNUM REUNION_CI REUNION_RMW REUNION_R34_NE REUNION_R34_SE REUNION_R34_SW REUNION_R34_NW REUNION_R50_NE REUNION_R50_SE REUNION_R50_SW REUNION_R50_NW REUNION_R64_NE REUNION_R64_SE REUNION_R64_SW REUNION_R64_NW BOM_LAT BOM_LON BOM_TYPE BOM_WIND BOM_PRES BOM_TNUM BOM_CI BOM_RMW BOM_R34_NE BOM_R34_SE BOM_R34_SW BOM_R34_NW BOM_R50_NE BOM_R50_SE BOM_R50_SW BOM_R50_NW BOM_R64_NE BOM_R64_SE BOM_R64_SW BOM_R64_NW BOM_ROCI BOM_POCI BOM_EYE BOM_POS_METHOD BOM_PRES_METHOD NADI_LAT NADI_LON NADI_CAT NADI_WIND NADI_PRES WELLINGTON_LAT WELLINGTON_LON WELLINGTON_WIND WELLINGTON_PRES DS824_LAT DS824_LON DS824_STAGE DS824_WIND DS824_PRES TD9636_LAT TD9636_LON TD9636_STAGE TD9636_WIND TD9636_PRES TD9635_LAT TD9635_LON TD9635_WIND TD9635_PRES TD9635_ROCI NEUMANN_LAT NEUMANN_LON NEUMANN_CLASS NEUMANN_WIND NEUMANN_PRES MLC_LAT MLC_LON MLC_CLASS MLC_WIND MLC_PRES USA_GUST BOM_GUST BOM_GUST_PER REUNION_GUST REUNION_GUST_PER USA_SEAHGT USA_SEARAD_NE USA_SEARAD_SE USA_SEARAD_SW USA_SEARAD_NW STORM_SPEED STORM_DIR
1940237N11150 1940 52 WP MM NOT_NAMED 1940-08-23 21:00:00 NR 11.0000 150.300 main 1502 1500 __________O___ -1 11.0000 150.300 7 26 294
1940237N11150 1940 52 WP MM NOT_NAMED 1940-08-24 00:00:00 NR 11.5271 149.114 main 1535 1535 __________P___ -1 11.5271 149.114 7 25 294
1940237N11150 1940 52 WP MM NOT_NAMED 1940-08-24 03:00:00 NR 12.0116 147.940 main 1580 1580 __________P___ -1 12.0116 147.940 7 24 291
1940237N11150 1940 52 WP MM NOT_NAMED 1940-08-24 06:00:00 NR 12.4150 146.796 main 1624 1624 __________P___ -1 12.4150 146.796 7 23 287
1940237N11150 1940 52 WP MM NOT_NAMED 1940-08-24 09:00:00 NR 12.7000 145.700 main 1661 1661 __________O___ -1 12.7000 145.700 7 21 282
1940237N11150 1940 52 WP MM NOT_NAMED 1940-08-24 12:00:00 NR 12.8448 144.673 main 1682 1682 __________P___ -1 12.8448 144.673 7 19 276
1940237N11150 1940 52 WP MM NOT_NAMED 1940-08-24 15:00:00 NR 12.8893 143.743 main 1710 1708 __________P___ -1 12.8893 143.743 7 17 272
1940237N11150 1940 52 WP MM NOT_NAMED 1940-08-24 18:00:00 NR 12.8891 142.942 main 1705 1686 __________P___ -1 12.8891 142.942 7 14 270
1940237N11150 1940 52 WP MM NOT_NAMED 1940-08-24 21:00:00 NR 12.9000 142.300 main 1686 1676 __________O___ -1 12.9000 142.300 7 10 275
1940237N11150 1940 52 WP MM NOT_NAMED 1940-08-25 00:00:00 NR 12.9849 141.894 main 1681 1673 __________P___ -1 12.9849 141.894 7 7 287
1940237N11150 1940 52 WP MM NOT_NAMED 1940-08-25 03:00:00 NR 13.0946 141.632 main 1679 1675 __________P___ -1 13.0946 141.632 7 5 297
1940237N11150 1940 52 WP MM NOT_NAMED 1940-08-25 06:00:00 NR 13.2321 141.403 main 1681 1681 __________P___ -1 13.2321 141.403 7 6 301
1940237N11150 1940 52 WP MM NOT_NAMED 1940-08-25 09:00:00 NR 13.4000 141.100 main 1685 1634 __________O___ -1 13.4000 141.100 7 9 294
1940237N11150 1940 52 WP MM NOT_NAMED 1940-08-25 12:00:00 NR 13.5885 140.572 main 1634 1574 __________P___ -1 13.5885 140.572 7 12 290
1940237N11150 1940 52 WP MM NOT_NAMED 1940-08-25 15:00:00 NR 13.8055 139.955 main 1574 1504 __________P___ -1 13.8055 139.955 7 13 290
1940237N11150 1940 52 WP MM NOT_NAMED 1940-08-25 18:00:00 NR 14.0446 139.285 main 1504 1437 __________P___ -1 14.0446 139.285 7 14 291
1940237N11150 1940 52 WP MM NOT_NAMED 1940-08-25 21:00:00 NR 14.3000 138.600 main 1437 1379 __________O___ -1 14.3000 138.600 7 14 293
1940237N11150 1940 52 WP MM NOT_NAMED 1940-08-26 00:00:00 NR 14.5756 137.997 main 1379 1319 __________P___ -1 14.5756 137.997 7 13 296
1940237N11150 1940 52 WP MM NOT_NAMED 1940-08-26 03:00:00 NR 14.8630 137.382 main 1321 1263 __________P___ -1 14.8630 137.382 7 14 295
1940237N11150 1940 52 WP MM NOT_NAMED 1940-08-26 06:00:00 NR 15.1440 136.726 main 1253 1189 __________P___ -1 15.1440 136.726 7 14 292
1940237N11150 1940 52 WP MM NOT_NAMED 1940-08-26 09:00:00 NR 15.4000 136.000 main 1189 1104 __________O___ -1 15.4000 136.000 7 17 287
1940237N11150 1940 52 WP MM NOT_NAMED 1940-08-26 12:00:00 NR 15.6263 135.083 main 1104 1021 __________P___ -1 15.6263 135.083 7 19 283
1940237N11150 1940 52 WP MM NOT_NAMED 1940-08-26 15:00:00 NR 15.8209 134.111 main 1011 933 __________P___ -1 15.8209 134.111 7 19 281
1940237N11150 1940 52 WP MM NOT_NAMED 1940-08-26 18:00:00 NR 15.9796 133.183 main 933 862 __________P___ -1 15.9796 133.183 7 17 280
1940237N11150 1940 52 WP MM NOT_NAMED 1940-08-26 21:00:00 NR 16.1000 132.400 main 862 825 __________O___ -1 16.1000 132.400 7 12 279
1940237N11150 1940 52 WP MM NOT_NAMED 1940-08-27 00:00:00 NR 16.1584 131.947 main 822 804 __________P___ -1 16.1584 131.947 7 7 277
1940237N11150 1940 52 WP MM NOT_NAMED 1940-08-27 03:00:00 NR 16.1884 131.638 main 795 777 __________P___ -1 16.1884 131.638 7 6 277
1940237N11150 1940 52 WP MM NOT_NAMED 1940-08-27 06:00:00 NR 16.2244 131.360 main 777 749 __________P___ -1 16.2244 131.360 7 6 280
1940237N11150 1940 52 WP MM NOT_NAMED 1940-08-27 09:00:00 NR 16.3000 131.000 main 749 702 __________O___ -1 16.3000 131.000 7 10 283
1940237N11150 1940 52 WP MM NOT_NAMED 1940-08-27 12:00:00 NR 16.4505 130.349 main 696 644 __________P___ -1 16.4505 130.349 7 14 284
1940237N11150 1940 52 WP MM NOT_NAMED 1940-08-27 15:00:00 NR 16.6425 129.609 main 634 581 __________P___ -1 16.6425 129.609 7 15 286
1940237N11150 1940 52 WP MM NOT_NAMED 1940-08-27 18:00:00 NR 16.8630 128.864 main 587 542 __________P___ -1 16.8630 128.864 7 14 289
1940237N11150 1940 52 WP MM NOT_NAMED 1940-08-27 21:00:00 NR 17.1000 128.200 main 542 526 __________O___ -1 17.1000 128.200 7 12 294
1940237N11150 1940 52 WP MM NOT_NAMED 1940-08-28 00:00:00 NR 17.3342 127.731 main 518 513 __________P___ -1 17.3342 127.731 7 9 301
1940237N11150 1940 52 WP MM NOT_NAMED 1940-08-28 03:00:00 NR 17.5833 127.352 main 521 485 __________P___ -1 17.5833 127.352 7 8 307
1940237N11150 1940 52 WP MM NOT_NAMED 1940-08-28 06:00:00 NR 17.8408 127.022 main 485 462 __________P___ -1 17.8408 127.022 7 8 310
1940237N11150 1940 52 WP MM NOT_NAMED 1940-08-28 09:00:00 NR 18.1000 126.700 main 462 422 __________O___ -1 18.1000 126.700 7 8 306
1940237N11150 1940 52 WP MM NOT_NAMED 1940-08-28 12:00:00 NR 18.3337 126.312 main 422 380 __________P___ -1 18.3337 126.312 7 9 303
1940237N11150 1940 52 WP MM NOT_NAMED 1940-08-28 15:00:00 NR 18.5700 125.927 main 380 350 __________P___ -1 18.5700 125.927 7 9 304
1940237N11150 1940 52 WP MM NOT_NAMED 1940-08-28 18:00:00 NR 18.8212 125.553 main 350 315 __________P___ -1 18.8212 125.553 7 9 308
1940237N11150 1940 52 WP MM NOT_NAMED 1940-08-28 21:00:00 NR 19.1000 125.200 main 315 295 __________O___ -1 19.1000 125.200 7 9 313
1940237N11150 1940 52 WP MM NOT_NAMED 1940-08-29 00:00:00 NR 19.4085 124.894 main 295 282 __________P___ -1 19.4085 124.894 7 9 319
1940237N11150 1940 52 WP MM NOT_NAMED 1940-08-29 03:00:00 NR 19.7468 124.606 main 282 277 __________P___ -1 19.7468 124.606 7 9 322
1940237N11150 1940 52 WP MM NOT_NAMED 1940-08-29 06:00:00 NR 20.1116 124.316 main 283 283 __________P___ -1 20.1116 124.316 7 9 323
1940237N11150 1940 52 WP MM NOT_NAMED 1940-08-29 09:00:00 NR 20.5000 124.000 main 294 294 __________O___ -1 20.5000 124.000 7 11 320
1940237N11150 1940 52 WP MM NOT_NAMED 1940-08-29 12:00:00 NR 20.9284 123.585 main 300 247 __________P___ -1 20.9284 123.585 7 12 318
1940237N11150 1940 52 WP MM NOT_NAMED 1940-08-29 15:00:00 NR 21.3734 123.149 main 234 196 __________P___ -1 21.3734 123.149 7 12 318
1940237N11150 1940 52 WP MM NOT_NAMED 1940-08-29 18:00:00 NR 21.8066 122.738 main 186 143 __________P___ -1 21.8066 122.738 7 11 320
1940237N11150 1940 52 WP MM NOT_NAMED 1940-08-29 21:00:00 NR 22.2000 122.400 main 143 105 __________O___ -1 22.2000 122.400 7 9 324
1940237N11150 1940 52 WP MM NOT_NAMED 1940-08-30 00:00:00 NR 22.4931 122.202 main 105 84 __________P___ -1 22.4931 122.202 7 6 332
1940237N11150 1940 52 WP MM NOT_NAMED 1940-08-30 03:00:00 NR 22.7492 122.080 main 84 62 __________P___ -1 22.7492 122.080 7 6 339
1940237N11150 1940 52 WP MM NOT_NAMED 1940-08-30 06:00:00 NR 23.0057 121.993 main 62 51 __________P___ -1 23.0057 121.993 7 6 343
1940237N11150 1940 52 WP MM NOT_NAMED 1940-08-30 09:00:00 NR 23.3000 121.900 main 51 30 __________O___ -1 23.3000 121.900 7 8 343
1940237N11150 1940 52 WP MM NOT_NAMED 1940-08-30 12:00:00 NR 23.7346 121.744 main 20 0 __________P___ -1 23.7346 121.744 7 10 342
1940237N11150 1940 52 WP MM NOT_NAMED 1940-08-30 15:00:00 NR 24.2025 121.573 main 0 0 __________P___ -1 24.2025 121.573 7 10 341
1940237N11150 1940 52 WP MM NOT_NAMED 1940-08-30 18:00:00 NR 24.6440 121.391 main 0 0 __________P___ -1 24.6440 121.391 7 9 337
1940237N11150 1940 52 WP MM NOT_NAMED 1940-08-30 21:00:00 NR 25.0000 121.200 main 0 0 __________O___ -1 25.0000 121.200 7 6 328
1940237N11150 1940 52 WP MM NOT_NAMED 1940-08-31 00:00:00 NR 25.1399 121.054 main 10 10 __________P___ -1 25.1399 121.054 7 3 306
1940237N11150 1940 52 WP MM NOT_NAMED 1940-08-31 03:00:00 NR 25.1988 120.894 main 24 24 __________P___ -1 25.1988 120.894 7 4 290
1940237N11150 1940 52 WP MM NOT_NAMED 1940-08-31 06:00:00 NR 25.2584 120.688 main 45 45 __________P___ -1 25.2584 120.688 7 5 294
1940237N11150 1940 52 WP MM NOT_NAMED 1940-08-31 09:00:00 NR 25.4000 120.400 main 70 29 __________O___ -1 25.4000 120.400 7 9 306
1940237N11150 1940 52 WP MM NOT_NAMED 1940-08-31 12:00:00 NR 25.7619 119.913 main 22 0 __________P___ -1 25.7619 119.913 7 12 311
1940237N11150 1940 52 WP MM NOT_NAMED 1940-08-31 15:00:00 NR 26.2078 119.353 main 0 0 __________P___ -1 26.2078 119.353 7 13 313
1940237N11150 1940 52 WP MM NOT_NAMED 1940-08-31 18:00:00 NR 26.6745 118.816 main 0 0 __________P___ -1 26.6745 118.816 7 12 316
1940237N11150 1940 52 WP MM NOT_NAMED 1940-08-31 21:00:00 NR 27.1000 118.400 main 0 0 __________O___ -1 27.1000 118.400 7 9 317
1940237N11150 1940 52 WP MM NOT_NAMED 1940-09-01 00:00:00 NR 27.3093 118.158 main 0 0 __________P___ -1 27.3093 118.158 7 5 322
1940237N11150 1940 52 WP MM NOT_NAMED 1940-09-01 03:00:00 NR 27.4853 118.060 main 0 0 __________P___ -1 27.4853 118.060 7 4 355
1940237N11150 1940 52 WP MM NOT_NAMED 1940-09-01 06:00:00 NR 27.7187 118.107 main 0 0 __________P___ -1 27.7187 118.107 7 7 19
1940237N11150 1940 52 WP MM NOT_NAMED 1940-09-01 09:00:00 NR 28.1000 118.300 main 0 0 __________O___ -1 28.1000 118.300 7 12 24
1940237N11150 1940 52 WP MM NOT_NAMED 1940-09-01 12:00:00 NR 28.8371 118.668 main 0 0 __________P___ -1 28.8371 118.668 7 18 25
1940237N11150 1940 52 WP MM NOT_NAMED 1940-09-01 15:00:00 NR 29.7104 119.170 main 0 0 __________P___ -1 29.7104 119.170 7 20 28
1940237N11150 1940 52 WP MM NOT_NAMED 1940-09-01 18:00:00 NR 30.5782 119.714 main 0 0 __________P___ -1 30.5782 119.714 7 18 29
1940237N11150 1940 52 WP MM NOT_NAMED 1940-09-01 21:00:00 NR 31.3000 120.200 main 0 0 __________O___ -1 31.3000 120.200 7 12 27
1940237N11150 1940 52 WP MM NOT_NAMED 1940-09-02 00:00:00 NR 31.6702 120.369 main 0 0 __________P___ -1 31.6702 120.369 7 6 22
1940237N11150 1940 52 WP MM NOT_NAMED 1940-09-02 03:00:00 NR 31.8865 120.475 main 0 0 __________P___ -1 31.8865 120.475 7 4 33
1940237N11150 1940 52 WP MM NOT_NAMED 1940-09-02 06:00:00 NR 32.0347 120.644 main 9 0 __________P___ -1 32.0347 120.644 7 5 55
1940237N11150 1940 52 WP MM NOT_NAMED 1940-09-02 09:00:00 NR 32.2000 121.000 main 0 0 __________O___ -1 32.2000 121.000 7 11 61
1940237N11150 1940 52 WP MM NOT_NAMED 1940-09-02 12:00:00 NR 32.5596 121.786 main 43 43 __________P___ -1 32.5596 121.786 7 17 64
1940237N11150 1940 52 WP MM NOT_NAMED 1940-09-02 15:00:00 NR 32.9346 122.765 main 142 142 __________P___ -1 32.9346 122.765 7 18 67
1940237N11150 1940 52 WP MM NOT_NAMED 1940-09-02 18:00:00 NR 33.2661 123.787 main 222 140 __________P___ -1 33.2661 123.787 7 17 71
1940237N11150 1940 52 WP MM NOT_NAMED 1940-09-02 21:00:00 NR 33.5000 124.700 main 140 81 __________O___ -1 33.5000 124.700 7 14 76
1940237N11150 1940 52 WP MM NOT_NAMED 1940-09-03 00:00:00 NR 33.6010 125.385 main 81 47 __________P___ -1 33.6010 125.385 7 10 85
1940237N11150 1940 52 WP MM NOT_NAMED 1940-09-03 03:00:00 NR 33.5934 125.869 main 38 9 __________P___ -1 33.5934 125.869 7 7 97
1940237N11150 1940 52 WP MM NOT_NAMED 1940-09-03 06:00:00 NR 33.5145 126.219 main 9 0 __________P___ -1 33.5145 126.219 7 6 110
1940237N11150 1940 52 WP MM NOT_NAMED 1940-09-03 09:00:00 NR 33.4000 126.500 main 0 __________O___ -1 33.4000 126.500 7 5 116

デジタル台風データ・検索

IBTrACS Databaseについて

本データベースは、米国NOAAが公開する1842年以降の世界の熱帯低気圧のベストトラックデータアーカイブInternational Best Track Archive for Climate Stewardship (IBTrACS)を、ウェブで閲覧しやすい形式に変換したものです。

最終更新日:2021-12-03